Strona główna
METAR-TAF:

METAR-TAF

Lotnisko :

Bejrut, Liban

Szerokość geograficzna: 33-49N, Długość geograficzna: 035-29E, wysokość: 29 m

Aktualna obserwacja pogody

Raport powstał 1 godzina i 1 minut temu, godzina 11:00 UTC
Wiatr 7 kt od północno-północny zachód
Temperatura 18°C
Wilgotność 56%
Ciśnienie 1023 hPa
Widzialność: 6000 m

METAR: OLBA 161100Z 33007KT 6000 NSC 18/09 Q1023 NOSIG

czas: 14:01 (12:01 UTC)

Prognoza

Raport powstał 2 godziny i 1 minut temu, godzina 10:00 UTC
Prognoza ważna od 16 godzina 12 UTC do 17 godzina 18 UTC
Wiatr 13 kt od północ
Widzialność 10 km lub więcej
Brak chmur poniżej 1500 m i brak chmur cumulonimbus
Stopniowe zmiany
od 16 godzina 18 UTC do 16 godzina 20 UTC
Wiatr 5 kt od południowy wschód
Stopniowe zmiany
od 17 godzina 08 UTC do 17 godzina 10 UTC
Wiatr 8 kt od północ

TAF: OLBA 161000Z 1612/1718 01013KT CAVOK BECMG 1618/1620 13005KT BECMG 1708/1710 35008KT

Obserwacja i prognoza pogody dla ponad 4000 lotnisk (raport METAR i TAF).

Dostępne stacje oznaczono żółtymi i czerwonymi punktami na mapie.

Najedź kursorem aby zobaczyć nazwę stacji.

Kliknij aby zobaczyć obserwacje i prognozy pogody.

Aby zmienić mapę: kliknij na zielony przycisk z czarnym krzyżykiem, aby powiększyć; na zielony przycisk z myślnikiem, aby pomniejszyć; na zielone strzałki, aby przejść do map sąsiednich.


METAR-TAF: